Decker, MT (59025)

9:03 AM MDT on July 12, 2014 (GMT -0600)
Tongue River Reservoir (KMTDECKE2) Elev 3486 ft | 45.13 °N, 106.78 °W | Change Station

Current weather conditions updated 7 seconds ago

Clear
Clear
74.0 °F
Feels Like 76 °F
N
2.4
Wind Variable Wind from SW
Gusts 2.4 mph

Today is forecast to be nearly the same temperature as yesterday.

Today
High -- | Low -- °F
--% Chance of Precip.
Yesterday
High -- | Low -- °F
Precip. -- in
5:31 AM 8:53 PM
Full, 100% visible
Pressure 30.14 in
Visibility 10.0 miles
Clouds Clear
Heat Index 76 °F
Dew Point 62 °F
Humidity 65%
Rainfall 0.00 in
Snow Depth Not available.
UV 4 out of 12
Pollen 4.50 out of 12
Air Quality Not available.
Flu Activity Sporadic
METAR KSHR 121453Z AUTO 33006KT 10SM CLR 19/13 A3023 RMK AO2 SLP205 T01940128 51014

More Conditions Fewer Conditions

Pressure 30.14 in
Visibility 10.0 miles
Clouds Clear
Heat Index 76 °F
Dew Point 62 °F
Humidity 65%
Rainfall 0.00 in
Snow Depth Not available.
UV 4 out of 12
Pollen 4.50 out of 12
Air Quality Not available.
Flu Activity Sporadic
METAR KSHR 121453Z AUTO 33006KT 10SM CLR 19/13 A3023 RMK AO2 SLP205 T01940128 51014

More Conditions Fewer Conditions

10-Day Weather Forecast

Almanac

Astronomy

Jul. 12, 2014 Rise Set
Actual Time 5:31 AM MDT 8:53 PM MDT
Civil Twilight 4:54 AM MDT 9:29 PM MDT
Nautical Twilight 4:07 AM MDT 10:16 PM MDT
Astronomical Twilight 3:07 AM MDT 11:16 PM MDT
Moon 8:51 PM MDT 5:58 AM MDT
Length of Visible Light 16h 34m
Length of Day
15h 21m
Tomorrow will be 1m 31s shorter.
Full, 100% of the Moon is Illuminated
Today
Full
Jul 18
Last Quarter
Jul 26
New
Aug 3
First Quarter
Aug 10
Full

Today's Extremes

State Highs State Lows

Community

WunderPhotos

Upload Photos

1,732,848 photos uploaded!

WunderBlogs® & News

By Dr. Jeff Masters
Director of Meteorology, Weather Underground
By Kari Strenfel
Meteorologist, Weather Underground
By Christopher C. Burt
Weather Historian, Weather Underground
July 12, 2014
July 12, 2014
July 12, 2014

Nearby

Snow Depth

Station Depth Elevation
Cole Creek 1 in 7850 ft
Burnt Mountain 1 in 5880 ft
White Mill 1 in 8700 ft
Northeast Entrance 0 in 7350 ft
Placer Basin 0 in 8830 ft

Earthquake Activity

City Distance Mag. Time & Date
No recent earthquake activity has been reported nearby.
Minimum magnitude displayed is 2.5.

Coastal Water Temperatures

Place Temperature
No Stations Reporting

Nearby Weather Stations

Station Location Temp. Heat Index Dew Point Humidity Wind Precip. Elev Updated Type
Tongue River Reservoir, Decker, MT 74.0 °F 76 °F 62 °F 65% SW  at  2.4 mph 0.00 in / hr 3486 ft 9:03 AM MDT Rapid Fire
RAWS ASHLAND PORTABLE MT, Birney, MT 68 °F - 58 °F 70% WNW  at  7 mph 0.00 in / hr 3934 ft 7:54 AM MDT MADIS

Show More Stations Show Fewer Stations